sensor_id;sensor_type;location;lat;lon;timestamp;P1;durP1;ratioP1;P2;durP2;ratioP2
5040;SDS011;2539;52.568;13.364;2022-08-01T00:01:04;4.20;;;3.83;;
5040;SDS011;2539;52.568;13.364;2022-08-01T00:03:31;5.97;;;4.20;;
5040;SDS011;2539;52.568;13.364;2022-08-01T00:05:59;5.30;;;3.83;;
5040;SDS011;2539;52.568;13.364;2022-08-01T00:08:25;4.50;;;4.03;;
5040;SDS011;2539;52.568;13.364;2022-08-01T00:10:51;5.47;;;3.83;;
5040;SDS011;2539;52.568;13.364;2022-08-01T00:13:17;5.53;;;4.20;;
5040;SDS011;2539;52.568;13.364;2022-08-01T00:15:43;6.00;;;3.50;;
5040;SDS011;2539;52.568;13.364;2022-08-01T00:18:10;5.87;;;3.90;;
5040;SDS011;2539;52.568;13.364;2022-08-01T00:20:36;4.00;;;3.70;;
5040;SDS011;2539;52.568;13.364;2022-08-01T00:23:02;5.03;;;4.10;;
5040;SDS011;2539;52.568;13.364;2022-08-01T00:25:29;5.10;;;4.60;;
5040;SDS011;2539;52.568;13.364;2022-08-01T00:27:55;5.10;;;4.53;;
5040;SDS011;2539;52.568;13.364;2022-08-01T00:30:21;5.17;;;3.97;;
5040;SDS011;2539;52.568;13.364;2022-08-01T00:32:47;5.47;;;4.57;;
5040;SDS011;2539;52.568;13.364;2022-08-01T00:35:14;7.03;;;5.47;;
5040;SDS011;2539;52.568;13.364;2022-08-01T00:37:39;5.50;;;5.00;;
5040;SDS011;2539;52.568;13.364;2022-08-01T00:40:05;5.10;;;4.60;;
5040;SDS011;2539;52.568;13.364;2022-08-01T00:42:32;5.40;;;5.00;;
5040;SDS011;2539;52.568;13.364;2022-08-01T00:44:57;6.33;;;5.70;;
5040;SDS011;2539;52.568;13.364;2022-08-01T00:47:24;6.07;;;5.33;;
5040;SDS011;2539;52.568;13.364;2022-08-01T00:49:50;6.00;;;5.30;;
5040;SDS011;2539;52.568;13.364;2022-08-01T00:52:16;5.72;;;5.22;;
5040;SDS011;2539;52.568;13.364;2022-08-01T00:54:42;5.30;;;4.80;;
5040;SDS011;2539;52.568;13.364;2022-08-01T00:57:09;6.07;;;5.47;;
5040;SDS011;2539;52.568;13.364;2022-08-01T00:59:35;6.03;;;5.30;;
5040;SDS011;2539;52.568;13.364;2022-08-01T01:02:02;6.57;;;5.23;;
5040;SDS011;2539;52.568;13.364;2022-08-01T01:04:28;7.13;;;4.70;;
5040;SDS011;2539;52.568;13.364;2022-08-01T01:07:06;9.37;;;5.13;;
5040;SDS011;2539;52.568;13.364;2022-08-01T01:09:50;6.57;;;4.90;;
5040;SDS011;2539;52.568;13.364;2022-08-01T01:12:43;5.03;;;4.63;;
5040;SDS011;2539;52.568;13.364;2022-08-01T01:18:13;5.23;;;4.83;;
5040;SDS011;2539;52.568;13.364;2022-08-01T01:20:44;5.70;;;5.03;;
5040;SDS011;2539;52.568;13.364;2022-08-01T01:29:02;5.53;;;5.03;;
5040;SDS011;2539;52.568;13.364;2022-08-01T01:31:50;6.80;;;4.80;;
5040;SDS011;2539;52.568;13.364;2022-08-01T01:34:21;4.77;;;4.47;;
5040;SDS011;2539;52.568;13.364;2022-08-01T01:36:50;5.30;;;4.80;;
5040;SDS011;2539;52.568;13.364;2022-08-01T01:39:17;4.80;;;4.30;;
5040;SDS011;2539;52.568;13.364;2022-08-01T01:41:45;5.30;;;4.80;;
5040;SDS011;2539;52.568;13.364;2022-08-01T01:44:14;5.03;;;4.50;;
5040;SDS011;2539;52.568;13.364;2022-08-01T01:46:41;5.40;;;5.00;;
5040;SDS011;2539;52.568;13.364;2022-08-01T01:49:08;5.37;;;4.43;;
5040;SDS011;2539;52.568;13.364;2022-08-01T01:51:36;5.17;;;4.67;;
5040;SDS011;2539;52.568;13.364;2022-08-01T01:54:04;5.20;;;4.53;;
5040;SDS011;2539;52.568;13.364;2022-08-01T01:56:32;4.60;;;4.13;;
5040;SDS011;2539;52.568;13.364;2022-08-01T01:59:00;4.70;;;4.30;;
5040;SDS011;2539;52.568;13.364;2022-08-01T02:01:29;4.60;;;4.00;;
5040;SDS011;2539;52.568;13.364;2022-08-01T02:03:58;5.20;;;4.70;;
5040;SDS011;2539;52.568;13.364;2022-08-01T02:06:28;5.50;;;4.70;;
5040;SDS011;2539;52.568;13.364;2022-08-01T02:08:57;5.63;;;4.47;;
5040;SDS011;2539;52.568;13.364;2022-08-01T02:11:25;5.07;;;4.67;;
5040;SDS011;2539;52.568;13.364;2022-08-01T02:13:53;4.60;;;4.20;;
5040;SDS011;2539;52.568;13.364;2022-08-01T02:16:25;5.30;;;4.87;;
5040;SDS011;2539;52.568;13.364;2022-08-01T02:18:53;5.10;;;4.70;;
5040;SDS011;2539;52.568;13.364;2022-08-01T02:21:23;4.93;;;4.43;;
5040;SDS011;2539;52.568;13.364;2022-08-01T02:24:03;5.87;;;5.37;;
5040;SDS011;2539;52.568;13.364;2022-08-01T02:26:44;4.63;;;4.23;;
5040;SDS011;2539;52.568;13.364;2022-08-01T02:29:15;4.97;;;4.53;;
5040;SDS011;2539;52.568;13.364;2022-08-01T02:31:46;4.60;;;4.17;;
5040;SDS011;2539;52.568;13.364;2022-08-01T02:34:14;4.80;;;4.30;;
5040;SDS011;2539;52.568;13.364;2022-08-01T02:36:44;5.00;;;4.60;;
5040;SDS011;2539;52.568;13.364;2022-08-01T02:39:13;6.53;;;4.93;;
5040;SDS011;2539;52.568;13.364;2022-08-01T02:41:44;5.00;;;4.63;;
5040;SDS011;2539;52.568;13.364;2022-08-01T02:44:15;4.63;;;4.10;;
5040;SDS011;2539;52.568;13.364;2022-08-01T02:46:58;6.00;;;5.40;;
5040;SDS011;2539;52.568;13.364;2022-08-01T02:49:29;4.67;;;4.27;;
5040;SDS011;2539;52.568;13.364;2022-08-01T02:52:04;5.10;;;4.60;;
5040;SDS011;2539;52.568;13.364;2022-08-01T02:54:33;5.05;;;4.65;;
5040;SDS011;2539;52.568;13.364;2022-08-01T02:57:01;5.07;;;4.20;;
5040;SDS011;2539;52.568;13.364;2022-08-01T02:59:29;5.03;;;4.60;;
5040;SDS011;2539;52.568;13.364;2022-08-01T03:01:57;5.20;;;4.80;;
5040;SDS011;2539;52.568;13.364;2022-08-01T03:04:25;5.30;;;4.73;;
5040;SDS011;2539;52.568;13.364;2022-08-01T03:06:53;5.03;;;4.53;;
5040;SDS011;2539;52.568;13.364;2022-08-01T03:09:20;6.93;;;5.47;;
5040;SDS011;2539;52.568;13.364;2022-08-01T03:11:48;5.73;;;5.03;;
5040;SDS011;2539;52.568;13.364;2022-08-01T03:14:16;5.70;;;5.20;;
5040;SDS011;2539;52.568;13.364;2022-08-01T03:16:45;5.27;;;4.80;;
5040;SDS011;2539;52.568;13.364;2022-08-01T03:19:13;6.40;;;4.60;;
5040;SDS011;2539;52.568;13.364;2022-08-01T03:21:43;5.50;;;4.90;;
5040;SDS011;2539;52.568;13.364;2022-08-01T03:24:10;4.90;;;4.50;;
5040;SDS011;2539;52.568;13.364;2022-08-01T03:26:38;5.20;;;4.60;;
5040;SDS011;2539;52.568;13.364;2022-08-01T03:29:08;5.23;;;4.83;;
5040;SDS011;2539;52.568;13.364;2022-08-01T03:31:38;5.40;;;4.90;;
5040;SDS011;2539;52.568;13.364;2022-08-01T03:34:08;5.27;;;4.77;;
5040;SDS011;2539;52.568;13.364;2022-08-01T03:36:35;10.27;;;5.50;;
5040;SDS011;2539;52.568;13.364;2022-08-01T03:39:08;6.10;;;5.60;;
5040;SDS011;2539;52.568;13.364;2022-08-01T03:41:37;6.17;;;5.47;;
5040;SDS011;2539;52.568;13.364;2022-08-01T03:44:09;5.53;;;5.03;;
5040;SDS011;2539;52.568;13.364;2022-08-01T03:46:40;5.73;;;5.13;;
5040;SDS011;2539;52.568;13.364;2022-08-01T03:49:14;5.37;;;4.87;;
5040;SDS011;2539;52.568;13.364;2022-08-01T03:51:46;5.27;;;4.67;;
5040;SDS011;2539;52.568;13.364;2022-08-01T03:54:20;5.40;;;4.90;;
5040;SDS011;2539;52.568;13.364;2022-08-01T03:56:49;5.10;;;4.63;;
5040;SDS011;2539;52.568;13.364;2022-08-01T03:59:18;7.00;;;5.40;;
5040;SDS011;2539;52.568;13.364;2022-08-01T04:01:45;8.10;;;5.00;;
5040;SDS011;2539;52.568;13.364;2022-08-01T04:04:13;6.30;;;5.80;;
5040;SDS011;2539;52.568;13.364;2022-08-01T04:06:40;7.10;;;6.40;;
5040;SDS011;2539;52.568;13.364;2022-08-01T04:09:07;7.27;;;5.80;;
5040;SDS011;2539;52.568;13.364;2022-08-01T04:11:33;7.80;;;6.50;;
5040;SDS011;2539;52.568;13.364;2022-08-01T04:13:59;8.33;;;5.30;;
5040;SDS011;2539;52.568;13.364;2022-08-01T04:16:26;9.17;;;6.30;;
5040;SDS011;2539;52.568;13.364;2022-08-01T04:18:52;8.37;;;6.90;;
5040;SDS011;2539;52.568;13.364;2022-08-01T04:21:20;8.17;;;6.40;;
5040;SDS011;2539;52.568;13.364;2022-08-01T04:23:50;12.20;;;7.13;;
5040;SDS011;2539;52.568;13.364;2022-08-01T04:26:18;7.63;;;6.77;;
5040;SDS011;2539;52.568;13.364;2022-08-01T04:28:46;9.67;;;7.03;;
5040;SDS011;2539;52.568;13.364;2022-08-01T04:31:15;9.40;;;6.87;;
5040;SDS011;2539;52.568;13.364;2022-08-01T04:33:43;8.60;;;7.30;;
5040;SDS011;2539;52.568;13.364;2022-08-01T04:36:13;10.03;;;7.30;;
5040;SDS011;2539;52.568;13.364;2022-08-01T04:38:44;8.20;;;7.40;;
5040;SDS011;2539;52.568;13.364;2022-08-01T04:41:13;9.63;;;8.67;;
5040;SDS011;2539;52.568;13.364;2022-08-01T04:43:41;10.70;;;8.13;;
5040;SDS011;2539;52.568;13.364;2022-08-01T04:46:08;14.03;;;9.60;;
5040;SDS011;2539;52.568;13.364;2022-08-01T04:48:36;10.93;;;9.50;;
5040;SDS011;2539;52.568;13.364;2022-08-01T04:51:04;12.40;;;9.70;;
5040;SDS011;2539;52.568;13.364;2022-08-01T04:53:36;11.50;;;9.37;;
5040;SDS011;2539;52.568;13.364;2022-08-01T04:56:03;11.80;;;10.03;;
5040;SDS011;2539;52.568;13.364;2022-08-01T04:58:29;14.85;;;10.70;;
5040;SDS011;2539;52.568;13.364;2022-08-01T05:00:55;13.10;;;10.43;;
5040;SDS011;2539;52.568;13.364;2022-08-01T05:03:21;11.70;;;10.50;;
5040;SDS011;2539;52.568;13.364;2022-08-01T05:05:47;11.73;;;10.50;;
5040;SDS011;2539;52.568;13.364;2022-08-01T05:08:13;11.17;;;10.07;;
5040;SDS011;2539;52.568;13.364;2022-08-01T05:10:40;10.90;;;9.83;;
5040;SDS011;2539;52.568;13.364;2022-08-01T05:13:06;11.30;;;10.20;;
5040;SDS011;2539;52.568;13.364;2022-08-01T05:15:32;10.80;;;9.80;;
5040;SDS011;2539;52.568;13.364;2022-08-01T05:17:59;12.03;;;10.63;;
5040;SDS011;2539;52.568;13.364;2022-08-01T05:20:26;12.43;;;9.77;;
5040;SDS011;2539;52.568;13.364;2022-08-01T05:22:52;12.00;;;10.90;;
5040;SDS011;2539;52.568;13.364;2022-08-01T05:25:18;10.90;;;9.77;;
5040;SDS011;2539;52.568;13.364;2022-08-01T05:27:45;10.77;;;9.77;;
5040;SDS011;2539;52.568;13.364;2022-08-01T05:30:11;10.90;;;9.80;;
5040;SDS011;2539;52.568;13.364;2022-08-01T05:32:37;11.07;;;9.97;;
5040;SDS011;2539;52.568;13.364;2022-08-01T05:35:04;10.63;;;9.53;;
5040;SDS011;2539;52.568;13.364;2022-08-01T05:37:31;9.23;;;8.23;;
5040;SDS011;2539;52.568;13.364;2022-08-01T05:39:57;10.73;;;9.37;;
5040;SDS011;2539;52.568;13.364;2022-08-01T05:42:23;10.13;;;9.25;;
5040;SDS011;2539;52.568;13.364;2022-08-01T05:44:49;9.50;;;8.70;;
5040;SDS011;2539;52.568;13.364;2022-08-01T05:47:16;9.57;;;8.57;;
5040;SDS011;2539;52.568;13.364;2022-08-01T05:49:43;9.13;;;8.23;;
5040;SDS011;2539;52.568;13.364;2022-08-01T05:52:09;9.90;;;9.10;;
5040;SDS011;2539;52.568;13.364;2022-08-01T05:54:36;9.07;;;8.13;;
5040;SDS011;2539;52.568;13.364;2022-08-01T05:57:02;8.60;;;7.70;;
5040;SDS011;2539;52.568;13.364;2022-08-01T05:59:29;8.53;;;7.63;;
5040;SDS011;2539;52.568;13.364;2022-08-01T06:01:56;7.50;;;6.80;;
5040;SDS011;2539;52.568;13.364;2022-08-01T06:04:22;7.40;;;6.72;;
5040;SDS011;2539;52.568;13.364;2022-08-01T06:06:48;9.00;;;7.30;;
5040;SDS011;2539;52.568;13.364;2022-08-01T06:09:15;7.43;;;6.80;;
5040;SDS011;2539;52.568;13.364;2022-08-01T06:11:41;8.07;;;7.30;;
5040;SDS011;2539;52.568;13.364;2022-08-01T06:14:07;7.80;;;7.10;;
5040;SDS011;2539;52.568;13.364;2022-08-01T06:16:33;7.80;;;7.10;;
5040;SDS011;2539;52.568;13.364;2022-08-01T06:18:59;7.37;;;6.67;;
5040;SDS011;2539;52.568;13.364;2022-08-01T06:21:25;8.40;;;7.60;;
5040;SDS011;2539;52.568;13.364;2022-08-01T06:23:51;6.20;;;5.70;;
5040;SDS011;2539;52.568;13.364;2022-08-01T06:26:17;6.90;;;6.40;;
5040;SDS011;2539;52.568;13.364;2022-08-01T06:28:43;7.57;;;6.87;;
5040;SDS011;2539;52.568;13.364;2022-08-01T06:31:09;6.83;;;6.23;;
5040;SDS011;2539;52.568;13.364;2022-08-01T06:33:37;6.23;;;5.73;;
5040;SDS011;2539;52.568;13.364;2022-08-01T06:36:04;6.67;;;5.97;;
5040;SDS011;2539;52.568;13.364;2022-08-01T06:38:30;5.70;;;5.20;;
5040;SDS011;2539;52.568;13.364;2022-08-01T06:40:56;6.10;;;5.60;;
5040;SDS011;2539;52.568;13.364;2022-08-01T06:43:22;5.50;;;5.10;;
5040;SDS011;2539;52.568;13.364;2022-08-01T06:45:49;5.10;;;4.70;;
5040;SDS011;2539;52.568;13.364;2022-08-01T06:48:15;5.43;;;5.03;;
5040;SDS011;2539;52.568;13.364;2022-08-01T06:50:41;4.40;;;4.00;;
5040;SDS011;2539;52.568;13.364;2022-08-01T06:53:07;5.20;;;4.70;;
5040;SDS011;2539;52.568;13.364;2022-08-01T06:55:34;4.50;;;4.10;;
5040;SDS011;2539;52.568;13.364;2022-08-01T06:58:00;5.57;;;5.13;;
5040;SDS011;2539;52.568;13.364;2022-08-01T07:00:26;5.60;;;5.10;;
5040;SDS011;2539;52.568;13.364;2022-08-01T07:02:53;6.00;;;4.40;;
5040;SDS011;2539;52.568;13.364;2022-08-01T07:05:22;6.10;;;4.60;;
5040;SDS011;2539;52.568;13.364;2022-08-01T07:07:48;5.10;;;4.43;;
5040;SDS011;2539;52.568;13.364;2022-08-01T07:10:15;4.70;;;4.30;;
5040;SDS011;2539;52.568;13.364;2022-08-01T07:12:41;6.40;;;4.87;;
5040;SDS011;2539;52.568;13.364;2022-08-01T07:15:08;5.07;;;4.57;;
5040;SDS011;2539;52.568;13.364;2022-08-01T07:17:38;5.30;;;4.80;;
5040;SDS011;2539;52.568;13.364;2022-08-01T07:20:06;4.33;;;3.93;;
5040;SDS011;2539;52.568;13.364;2022-08-01T07:22:37;6.07;;;4.30;;
5040;SDS011;2539;52.568;13.364;2022-08-01T07:25:04;4.30;;;3.70;;
5040;SDS011;2539;52.568;13.364;2022-08-01T07:27:31;6.60;;;4.50;;
5040;SDS011;2539;52.568;13.364;2022-08-01T07:29:57;6.03;;;4.30;;
5040;SDS011;2539;52.568;13.364;2022-08-01T07:32:23;8.53;;;5.93;;
5040;SDS011;2539;52.568;13.364;2022-08-01T07:34:49;4.40;;;4.00;;
5040;SDS011;2539;52.568;13.364;2022-08-01T07:37:16;4.60;;;3.90;;
5040;SDS011;2539;52.568;13.364;2022-08-01T07:39:42;4.80;;;4.30;;
5040;SDS011;2539;52.568;13.364;2022-08-01T07:42:08;4.60;;;4.20;;
5040;SDS011;2539;52.568;13.364;2022-08-01T07:44:35;4.13;;;3.80;;
5040;SDS011;2539;52.568;13.364;2022-08-01T07:47:01;7.37;;;3.93;;
5040;SDS011;2539;52.568;13.364;2022-08-01T07:49:28;4.60;;;3.20;;
5040;SDS011;2539;52.568;13.364;2022-08-01T07:51:54;4.67;;;4.27;;
5040;SDS011;2539;52.568;13.364;2022-08-01T07:54:20;4.67;;;4.27;;
5040;SDS011;2539;52.568;13.364;2022-08-01T07:56:49;5.27;;;4.77;;
5040;SDS011;2539;52.568;13.364;2022-08-01T07:59:16;4.73;;;4.33;;
5040;SDS011;2539;52.568;13.364;2022-08-01T08:01:48;7.10;;;5.27;;
5040;SDS011;2539;52.568;13.364;2022-08-01T08:04:16;4.33;;;3.97;;
5040;SDS011;2539;52.568;13.364;2022-08-01T08:06:43;5.37;;;4.87;;
5040;SDS011;2539;52.568;13.364;2022-08-01T08:09:10;5.33;;;4.83;;
5040;SDS011;2539;52.568;13.364;2022-08-01T08:11:37;5.90;;;5.40;;
5040;SDS011;2539;52.568;13.364;2022-08-01T08:14:03;5.30;;;4.80;;
5040;SDS011;2539;52.568;13.364;2022-08-01T08:16:29;7.20;;;4.93;;
5040;SDS011;2539;52.568;13.364;2022-08-01T08:18:56;5.07;;;4.10;;
5040;SDS011;2539;52.568;13.364;2022-08-01T08:21:22;4.37;;;3.97;;
5040;SDS011;2539;52.568;13.364;2022-08-01T08:23:48;4.33;;;3.43;;
5040;SDS011;2539;52.568;13.364;2022-08-01T08:26:33;3.10;;;2.80;;
5040;SDS011;2539;52.568;13.364;2022-08-01T08:28:59;3.43;;;3.13;;
5040;SDS011;2539;52.568;13.364;2022-08-01T08:31:25;3.07;;;2.77;;
5040;SDS011;2539;52.568;13.364;2022-08-01T08:33:52;3.50;;;2.60;;
5040;SDS011;2539;52.568;13.364;2022-08-01T08:36:18;3.20;;;2.83;;
5040;SDS011;2539;52.568;13.364;2022-08-01T08:38:44;3.00;;;2.67;;
5040;SDS011;2539;52.568;13.364;2022-08-01T08:41:10;2.73;;;2.50;;
5040;SDS011;2539;52.568;13.364;2022-08-01T08:43:37;2.30;;;2.00;;
5040;SDS011;2539;52.568;13.364;2022-08-01T08:46:03;3.67;;;2.20;;
5040;SDS011;2539;52.568;13.364;2022-08-01T08:48:33;2.50;;;2.27;;
5040;SDS011;2539;52.568;13.364;2022-08-01T08:51:00;2.67;;;2.20;;
5040;SDS011;2539;52.568;13.364;2022-08-01T08:53:27;3.13;;;2.20;;
5040;SDS011;2539;52.568;13.364;2022-08-01T08:55:54;2.10;;;1.80;;
5040;SDS011;2539;52.568;13.364;2022-08-01T08:58:22;4.07;;;2.07;;
5040;SDS011;2539;52.568;13.364;2022-08-01T09:00:53;2.97;;;2.53;;
5040;SDS011;2539;52.568;13.364;2022-08-01T09:03:20;1.70;;;1.42;;
5040;SDS011;2539;52.568;13.364;2022-08-01T09:05:46;4.30;;;2.00;;
5040;SDS011;2539;52.568;13.364;2022-08-01T09:08:12;2.50;;;1.80;;
5040;SDS011;2539;52.568;13.364;2022-08-01T09:10:39;2.07;;;1.70;;
5040;SDS011;2539;52.568;13.364;2022-08-01T09:13:06;3.00;;;2.17;;
5040;SDS011;2539;52.568;13.364;2022-08-01T09:15:40;2.80;;;2.10;;
5040;SDS011;2539;52.568;13.364;2022-08-01T09:18:29;3.13;;;2.13;;
5040;SDS011;2539;52.568;13.364;2022-08-01T09:23:32;4.70;;;2.17;;
5040;SDS011;2539;52.568;13.364;2022-08-01T09:25:59;2.50;;;2.30;;
5040;SDS011;2539;52.568;13.364;2022-08-01T09:28:29;2.78;;;2.10;;
5040;SDS011;2539;52.568;13.364;2022-08-01T09:30:56;2.10;;;1.90;;
5040;SDS011;2539;52.568;13.364;2022-08-01T09:33:23;3.17;;;2.40;;
5040;SDS011;2539;52.568;13.364;2022-08-01T09:35:56;2.40;;;1.97;;
5040;SDS011;2539;52.568;13.364;2022-08-01T09:38:24;2.90;;;2.33;;
5040;SDS011;2539;52.568;13.364;2022-08-01T09:40:54;3.63;;;2.50;;
5040;SDS011;2539;52.568;13.364;2022-08-01T09:43:25;3.80;;;2.30;;
5040;SDS011;2539;52.568;13.364;2022-08-01T09:45:54;4.53;;;2.20;;
5040;SDS011;2539;52.568;13.364;2022-08-01T09:48:21;3.70;;;2.27;;
5040;SDS011;2539;52.568;13.364;2022-08-01T09:50:51;2.53;;;2.10;;
5040;SDS011;2539;52.568;13.364;2022-08-01T09:53:18;3.27;;;2.50;;
5040;SDS011;2539;52.568;13.364;2022-08-01T09:55:45;3.53;;;2.40;;
5040;SDS011;2539;52.568;13.364;2022-08-01T09:58:11;3.60;;;1.90;;
5040;SDS011;2539;52.568;13.364;2022-08-01T10:00:38;3.20;;;2.90;;
5040;SDS011;2539;52.568;13.364;2022-08-01T10:03:21;3.47;;;2.20;;
5040;SDS011;2539;52.568;13.364;2022-08-01T10:05:49;4.73;;;2.20;;
5040;SDS011;2539;52.568;13.364;2022-08-01T10:08:16;3.37;;;2.50;;
5040;SDS011;2539;52.568;13.364;2022-08-01T10:11:04;3.53;;;2.40;;
5040;SDS011;2539;52.568;13.364;2022-08-01T10:13:32;7.67;;;2.70;;
5040;SDS011;2539;52.568;13.364;2022-08-01T10:15:59;4.73;;;2.60;;
5040;SDS011;2539;52.568;13.364;2022-08-01T10:18:26;2.90;;;2.47;;
5040;SDS011;2539;52.568;13.364;2022-08-01T10:20:56;3.57;;;2.37;;
5040;SDS011;2539;52.568;13.364;2022-08-01T10:23:27;2.33;;;2.13;;
5040;SDS011;2539;52.568;13.364;2022-08-01T10:25:58;6.13;;;2.70;;
5040;SDS011;2539;52.568;13.364;2022-08-01T10:28:26;2.13;;;1.93;;
5040;SDS011;2539;52.568;13.364;2022-08-01T10:30:55;3.00;;;2.70;;
5040;SDS011;2539;52.568;13.364;2022-08-01T10:33:23;2.80;;;2.20;;
5040;SDS011;2539;52.568;13.364;2022-08-01T10:35:50;14.80;;;13.27;;
5040;SDS011;2539;52.568;13.364;2022-08-01T10:38:17;8.77;;;6.10;;
5040;SDS011;2539;52.568;13.364;2022-08-01T10:40:44;12.60;;;11.27;;
5040;SDS011;2539;52.568;13.364;2022-08-01T10:43:10;3.10;;;2.80;;
5040;SDS011;2539;52.568;13.364;2022-08-01T10:45:38;2.53;;;2.10;;
5040;SDS011;2539;52.568;13.364;2022-08-01T10:48:07;4.80;;;1.77;;
5040;SDS011;2539;52.568;13.364;2022-08-01T10:53:16;2.20;;;2.00;;
5040;SDS011;2539;52.568;13.364;2022-08-01T10:58:35;5.70;;;2.03;;
5040;SDS011;2539;52.568;13.364;2022-08-01T11:01:22;3.23;;;2.50;;
5040;SDS011;2539;52.568;13.364;2022-08-01T11:04:03;3.17;;;1.80;;
5040;SDS011;2539;52.568;13.364;2022-08-01T11:09:00;2.10;;;1.50;;
5040;SDS011;2539;52.568;13.364;2022-08-01T11:11:28;2.60;;;1.70;;
5040;SDS011;2539;52.568;13.364;2022-08-01T11:16:24;2.00;;;1.80;;
5040;SDS011;2539;52.568;13.364;2022-08-01T11:18:52;2.20;;;1.60;;
5040;SDS011;2539;52.568;13.364;2022-08-01T11:21:18;7.00;;;2.10;;
5040;SDS011;2539;52.568;13.364;2022-08-01T11:23:48;2.07;;;1.77;;
5040;SDS011;2539;52.568;13.364;2022-08-01T11:26:17;3.10;;;1.90;;
5040;SDS011;2539;52.568;13.364;2022-08-01T11:28:44;3.57;;;2.50;;
5040;SDS011;2539;52.568;13.364;2022-08-01T11:41:10;3.77;;;2.30;;
5040;SDS011;2539;52.568;13.364;2022-08-01T11:43:54;2.60;;;1.60;;
5040;SDS011;2539;52.568;13.364;2022-08-01T11:46:58;2.00;;;1.40;;
5040;SDS011;2539;52.568;13.364;2022-08-01T11:52:07;1.80;;;1.43;;
5040;SDS011;2539;52.568;13.364;2022-08-01T11:54:36;2.00;;;1.30;;
5040;SDS011;2539;52.568;13.364;2022-08-01T11:57:03;2.60;;;1.73;;
5040;SDS011;2539;52.568;13.364;2022-08-01T11:59:45;2.63;;;1.97;;
5040;SDS011;2539;52.568;13.364;2022-08-01T12:02:29;2.50;;;1.50;;
5040;SDS011;2539;52.568;13.364;2022-08-01T12:04:59;3.05;;;1.25;;
5040;SDS011;2539;52.568;13.364;2022-08-01T12:07:27;1.70;;;1.30;;
5040;SDS011;2539;52.568;13.364;2022-08-01T12:10:03;3.03;;;2.47;;
5040;SDS011;2539;52.568;13.364;2022-08-01T12:12:32;3.63;;;3.10;;
5040;SDS011;2539;52.568;13.364;2022-08-01T12:15:01;2.70;;;1.63;;
5040;SDS011;2539;52.568;13.364;2022-08-01T12:20:03;3.87;;;1.73;;
5040;SDS011;2539;52.568;13.364;2022-08-01T12:22:31;3.27;;;1.37;;
5040;SDS011;2539;52.568;13.364;2022-08-01T12:25:07;4.10;;;1.50;;
5040;SDS011;2539;52.568;13.364;2022-08-01T12:27:36;3.80;;;1.70;;
5040;SDS011;2539;52.568;13.364;2022-08-01T12:30:06;2.60;;;1.30;;
5040;SDS011;2539;52.568;13.364;2022-08-01T12:32:34;3.47;;;1.33;;
5040;SDS011;2539;52.568;13.364;2022-08-01T12:35:03;4.27;;;3.00;;
5040;SDS011;2539;52.568;13.364;2022-08-01T12:37:41;5.23;;;2.30;;
5040;SDS011;2539;52.568;13.364;2022-08-01T12:40:16;2.70;;;2.17;;
5040;SDS011;2539;52.568;13.364;2022-08-01T12:42:46;3.37;;;1.57;;
5040;SDS011;2539;52.568;13.364;2022-08-01T12:46:05;2.13;;;1.43;;
5040;SDS011;2539;52.568;13.364;2022-08-01T12:48:14;3.93;;;1.77;;
5040;SDS011;2539;52.568;13.364;2022-08-01T12:50:44;4.23;;;2.27;;
5040;SDS011;2539;52.568;13.364;2022-08-01T12:53:12;4.93;;;1.80;;
5040;SDS011;2539;52.568;13.364;2022-08-01T12:55:48;5.10;;;4.70;;
5040;SDS011;2539;52.568;13.364;2022-08-01T12:58:16;4.40;;;3.33;;
5040;SDS011;2539;52.568;13.364;2022-08-01T13:00:44;3.77;;;3.47;;
5040;SDS011;2539;52.568;13.364;2022-08-01T13:03:16;2.43;;;1.80;;
5040;SDS011;2539;52.568;13.364;2022-08-01T13:05:50;3.30;;;2.17;;
5040;SDS011;2539;52.568;13.364;2022-08-01T13:08:24;5.03;;;1.93;;
5040;SDS011;2539;52.568;13.364;2022-08-01T13:11:04;3.50;;;2.00;;
5040;SDS011;2539;52.568;13.364;2022-08-01T13:13:38;2.13;;;1.83;;
5040;SDS011;2539;52.568;13.364;2022-08-01T13:16:05;3.00;;;1.77;;
5040;SDS011;2539;52.568;13.364;2022-08-01T13:18:33;5.63;;;1.60;;
5040;SDS011;2539;52.568;13.364;2022-08-01T13:21:07;2.90;;;2.30;;
5040;SDS011;2539;52.568;13.364;2022-08-01T13:23:36;12.10;;;1.70;;
5040;SDS011;2539;52.568;13.364;2022-08-01T13:26:02;5.60;;;4.63;;
5040;SDS011;2539;52.568;13.364;2022-08-01T13:28:29;3.40;;;1.97;;
5040;SDS011;2539;52.568;13.364;2022-08-01T13:31:03;2.83;;;1.70;;
5040;SDS011;2539;52.568;13.364;2022-08-01T13:33:41;2.37;;;1.57;;
5040;SDS011;2539;52.568;13.364;2022-08-01T13:36:13;4.77;;;1.47;;
5040;SDS011;2539;52.568;13.364;2022-08-01T13:38:40;6.40;;;5.80;;
5040;SDS011;2539;52.568;13.364;2022-08-01T13:41:25;5.80;;;4.93;;
5040;SDS011;2539;52.568;13.364;2022-08-01T13:43:52;5.40;;;2.03;;
5040;SDS011;2539;52.568;13.364;2022-08-01T13:46:18;2.87;;;2.57;;
5040;SDS011;2539;52.568;13.364;2022-08-01T13:48:45;6.10;;;3.70;;
5040;SDS011;2539;52.568;13.364;2022-08-01T13:51:11;4.37;;;2.07;;
5040;SDS011;2539;52.568;13.364;2022-08-01T13:53:37;3.23;;;2.57;;
5040;SDS011;2539;52.568;13.364;2022-08-01T13:56:04;4.10;;;2.70;;
5040;SDS011;2539;52.568;13.364;2022-08-01T13:58:30;3.60;;;2.30;;
5040;SDS011;2539;52.568;13.364;2022-08-01T14:00:56;4.40;;;2.37;;
5040;SDS011;2539;52.568;13.364;2022-08-01T14:03:22;6.03;;;2.47;;
5040;SDS011;2539;52.568;13.364;2022-08-01T14:05:48;4.93;;;2.30;;
5040;SDS011;2539;52.568;13.364;2022-08-01T14:08:15;2.30;;;1.63;;
5040;SDS011;2539;52.568;13.364;2022-08-01T14:10:41;2.20;;;1.70;;
5040;SDS011;2539;52.568;13.364;2022-08-01T14:13:07;3.70;;;1.70;;
5040;SDS011;2539;52.568;13.364;2022-08-01T14:15:33;8.00;;;2.10;;
5040;SDS011;2539;52.568;13.364;2022-08-01T14:18:00;3.27;;;1.57;;
5040;SDS011;2539;52.568;13.364;2022-08-01T14:20:27;2.53;;;1.83;;
5040;SDS011;2539;52.568;13.364;2022-08-01T14:22:53;2.33;;;1.70;;
5040;SDS011;2539;52.568;13.364;2022-08-01T14:25:19;3.53;;;1.20;;
5040;SDS011;2539;52.568;13.364;2022-08-01T14:27:46;3.17;;;1.55;;
5040;SDS011;2539;52.568;13.364;2022-08-01T14:30:13;2.85;;;1.42;;
5040;SDS011;2539;52.568;13.364;2022-08-01T14:32:39;2.00;;;1.33;;
5040;SDS011;2539;52.568;13.364;2022-08-01T14:35:06;2.30;;;1.90;;
5040;SDS011;2539;52.568;13.364;2022-08-01T14:37:33;3.23;;;1.73;;
5040;SDS011;2539;52.568;13.364;2022-08-01T14:39:59;5.70;;;1.77;;
5040;SDS011;2539;52.568;13.364;2022-08-01T14:42:31;3.50;;;1.67;;
5040;SDS011;2539;52.568;13.364;2022-08-01T14:44:57;1.90;;;1.43;;
5040;SDS011;2539;52.568;13.364;2022-08-01T14:47:23;2.13;;;1.93;;
5040;SDS011;2539;52.568;13.364;2022-08-01T14:49:49;3.50;;;1.70;;
5040;SDS011;2539;52.568;13.364;2022-08-01T14:52:16;4.00;;;2.07;;
5040;SDS011;2539;52.568;13.364;2022-08-01T14:54:43;2.47;;;1.80;;
5040;SDS011;2539;52.568;13.364;2022-08-01T14:57:09;2.30;;;1.70;;
5040;SDS011;2539;52.568;13.364;2022-08-01T14:59:34;3.10;;;1.70;;
5040;SDS011;2539;52.568;13.364;2022-08-01T15:02:00;2.47;;;1.57;;
5040;SDS011;2539;52.568;13.364;2022-08-01T15:04:26;2.20;;;1.60;;
5040;SDS011;2539;52.568;13.364;2022-08-01T15:06:53;2.40;;;1.70;;
5040;SDS011;2539;52.568;13.364;2022-08-01T15:09:19;2.60;;;1.60;;
5040;SDS011;2539;52.568;13.364;2022-08-01T15:11:45;6.60;;;1.80;;
5040;SDS011;2539;52.568;13.364;2022-08-01T15:14:12;2.27;;;1.70;;
5040;SDS011;2539;52.568;13.364;2022-08-01T15:16:56;6.37;;;1.53;;
5040;SDS011;2539;52.568;13.364;2022-08-01T15:19:22;2.13;;;1.10;;
5040;SDS011;2539;52.568;13.364;2022-08-01T15:21:48;1.60;;;1.03;;
5040;SDS011;2539;52.568;13.364;2022-08-01T15:24:14;3.60;;;1.00;;
5040;SDS011;2539;52.568;13.364;2022-08-01T15:26:40;1.90;;;1.00;;
5040;SDS011;2539;52.568;13.364;2022-08-01T15:29:05;2.90;;;1.30;;
5040;SDS011;2539;52.568;13.364;2022-08-01T15:31:31;3.07;;;1.37;;
5040;SDS011;2539;52.568;13.364;2022-08-01T15:33:57;3.53;;;1.30;;
5040;SDS011;2539;52.568;13.364;2022-08-01T15:36:23;2.90;;;1.20;;
5040;SDS011;2539;52.568;13.364;2022-08-01T15:38:49;2.00;;;1.30;;
5040;SDS011;2539;52.568;13.364;2022-08-01T15:41:16;3.07;;;2.13;;
5040;SDS011;2539;52.568;13.364;2022-08-01T15:43:41;2.77;;;1.50;;
5040;SDS011;2539;52.568;13.364;2022-08-01T15:46:07;2.60;;;1.20;;